sensor_id;sensor_type;location;lat;lon;timestamp;P1;durP1;ratioP1;P2;durP2;ratioP2
23658;SDS011;12006;42.666;23.326;2024-01-15T00:01:44;21.27;;;13.57;;
23658;SDS011;12006;42.666;23.326;2024-01-15T00:04:09;23.17;;;13.70;;
23658;SDS011;12006;42.666;23.326;2024-01-15T00:06:35;16.27;;;10.97;;
23658;SDS011;12006;42.666;23.326;2024-01-15T00:09:00;20.40;;;12.60;;
23658;SDS011;12006;42.666;23.326;2024-01-15T00:11:25;17.90;;;10.20;;
23658;SDS011;12006;42.666;23.326;2024-01-15T00:13:50;19.97;;;12.67;;
23658;SDS011;12006;42.666;23.326;2024-01-15T00:16:16;21.63;;;13.00;;
23658;SDS011;12006;42.666;23.326;2024-01-15T00:18:42;24.57;;;13.50;;
23658;SDS011;12006;42.666;23.326;2024-01-15T00:21:07;17.90;;;11.03;;
23658;SDS011;12006;42.666;23.326;2024-01-15T00:23:32;17.03;;;9.27;;
23658;SDS011;12006;42.666;23.326;2024-01-15T00:25:57;16.93;;;10.27;;
23658;SDS011;12006;42.666;23.326;2024-01-15T00:28:23;24.13;;;12.37;;
23658;SDS011;12006;42.666;23.326;2024-01-15T00:30:48;21.57;;;12.17;;
23658;SDS011;12006;42.666;23.326;2024-01-15T00:33:13;17.90;;;10.80;;
23658;SDS011;12006;42.666;23.326;2024-01-15T00:35:39;16.83;;;11.13;;
23658;SDS011;12006;42.666;23.326;2024-01-15T00:38:04;22.00;;;12.43;;
23658;SDS011;12006;42.666;23.326;2024-01-15T00:40:30;14.23;;;10.57;;
23658;SDS011;12006;42.666;23.326;2024-01-15T00:42:55;19.67;;;11.10;;
23658;SDS011;12006;42.666;23.326;2024-01-15T00:45:20;22.77;;;9.93;;
23658;SDS011;12006;42.666;23.326;2024-01-15T00:47:45;19.20;;;11.50;;
23658;SDS011;12006;42.666;23.326;2024-01-15T00:50:11;16.57;;;11.73;;
23658;SDS011;12006;42.666;23.326;2024-01-15T00:52:36;17.63;;;11.43;;
23658;SDS011;12006;42.666;23.326;2024-01-15T00:55:01;21.97;;;11.87;;
23658;SDS011;12006;42.666;23.326;2024-01-15T00:57:26;23.13;;;12.83;;
23658;SDS011;12006;42.666;23.326;2024-01-15T00:59:51;18.77;;;12.43;;
23658;SDS011;12006;42.666;23.326;2024-01-15T01:02:17;12.80;;;9.40;;
23658;SDS011;12006;42.666;23.326;2024-01-15T01:04:42;18.03;;;11.50;;
23658;SDS011;12006;42.666;23.326;2024-01-15T01:07:07;21.70;;;10.60;;
23658;SDS011;12006;42.666;23.326;2024-01-15T01:09:32;19.50;;;11.07;;
23658;SDS011;12006;42.666;23.326;2024-01-15T01:11:58;20.97;;;11.97;;
23658;SDS011;12006;42.666;23.326;2024-01-15T01:14:23;20.57;;;12.73;;
23658;SDS011;12006;42.666;23.326;2024-01-15T01:16:48;19.83;;;12.10;;
23658;SDS011;12006;42.666;23.326;2024-01-15T01:19:14;22.40;;;11.80;;
23658;SDS011;12006;42.666;23.326;2024-01-15T01:21:39;23.63;;;13.17;;
23658;SDS011;12006;42.666;23.326;2024-01-15T01:24:05;20.40;;;11.47;;
23658;SDS011;12006;42.666;23.326;2024-01-15T01:26:30;19.87;;;11.03;;
23658;SDS011;12006;42.666;23.326;2024-01-15T01:28:56;21.93;;;13.17;;
23658;SDS011;12006;42.666;23.326;2024-01-15T01:31:21;22.10;;;11.50;;
23658;SDS011;12006;42.666;23.326;2024-01-15T01:33:46;22.47;;;12.70;;
23658;SDS011;12006;42.666;23.326;2024-01-15T01:36:11;21.73;;;11.23;;
23658;SDS011;12006;42.666;23.326;2024-01-15T01:38:37;17.63;;;10.07;;
23658;SDS011;12006;42.666;23.326;2024-01-15T01:41:02;21.90;;;11.60;;
23658;SDS011;12006;42.666;23.326;2024-01-15T01:43:27;20.03;;;13.03;;
23658;SDS011;12006;42.666;23.326;2024-01-15T01:45:54;16.43;;;10.50;;
23658;SDS011;12006;42.666;23.326;2024-01-15T01:48:20;19.00;;;11.37;;
23658;SDS011;12006;42.666;23.326;2024-01-15T01:50:46;24.70;;;11.60;;
23658;SDS011;12006;42.666;23.326;2024-01-15T01:53:11;20.30;;;12.10;;
23658;SDS011;12006;42.666;23.326;2024-01-15T01:55:36;16.07;;;11.57;;
23658;SDS011;12006;42.666;23.326;2024-01-15T01:58:03;14.43;;;11.03;;
23658;SDS011;12006;42.666;23.326;2024-01-15T02:00:29;13.93;;;10.23;;
23658;SDS011;12006;42.666;23.326;2024-01-15T02:02:55;26.87;;;12.63;;
23658;SDS011;12006;42.666;23.326;2024-01-15T02:05:20;20.50;;;11.97;;
23658;SDS011;12006;42.666;23.326;2024-01-15T02:07:46;19.57;;;11.07;;
23658;SDS011;12006;42.666;23.326;2024-01-15T02:10:12;18.93;;;12.73;;
23658;SDS011;12006;42.666;23.326;2024-01-15T02:12:37;17.10;;;11.73;;
23658;SDS011;12006;42.666;23.326;2024-01-15T02:15:02;21.60;;;11.37;;
23658;SDS011;12006;42.666;23.326;2024-01-15T02:17:28;17.23;;;10.47;;
23658;SDS011;12006;42.666;23.326;2024-01-15T02:19:53;20.40;;;12.50;;
23658;SDS011;12006;42.666;23.326;2024-01-15T02:22:18;23.77;;;12.70;;
23658;SDS011;12006;42.666;23.326;2024-01-15T02:24:43;20.47;;;11.13;;
23658;SDS011;12006;42.666;23.326;2024-01-15T02:27:08;19.90;;;11.60;;
23658;SDS011;12006;42.666;23.326;2024-01-15T02:29:34;12.83;;;9.73;;
23658;SDS011;12006;42.666;23.326;2024-01-15T02:31:59;23.50;;;13.53;;
23658;SDS011;12006;42.666;23.326;2024-01-15T02:34:31;20.57;;;9.17;;
23658;SDS011;12006;42.666;23.326;2024-01-15T02:36:56;13.23;;;9.97;;
23658;SDS011;12006;42.666;23.326;2024-01-15T02:39:21;18.50;;;10.87;;
23658;SDS011;12006;42.666;23.326;2024-01-15T02:41:46;24.10;;;11.63;;
23658;SDS011;12006;42.666;23.326;2024-01-15T02:44:12;21.10;;;10.13;;
23658;SDS011;12006;42.666;23.326;2024-01-15T02:46:37;17.50;;;10.33;;
23658;SDS011;12006;42.666;23.326;2024-01-15T02:49:02;24.40;;;12.90;;
23658;SDS011;12006;42.666;23.326;2024-01-15T02:51:27;19.80;;;10.53;;
23658;SDS011;12006;42.666;23.326;2024-01-15T02:53:52;25.83;;;10.67;;
23658;SDS011;12006;42.666;23.326;2024-01-15T02:56:18;22.07;;;11.40;;
23658;SDS011;12006;42.666;23.326;2024-01-15T02:58:43;27.23;;;12.53;;
23658;SDS011;12006;42.666;23.326;2024-01-15T03:01:08;22.90;;;15.27;;
23658;SDS011;12006;42.666;23.326;2024-01-15T03:03:33;20.27;;;13.13;;
23658;SDS011;12006;42.666;23.326;2024-01-15T03:05:58;22.20;;;12.60;;
23658;SDS011;12006;42.666;23.326;2024-01-15T03:08:24;18.93;;;11.20;;
23658;SDS011;12006;42.666;23.326;2024-01-15T03:10:49;16.33;;;9.97;;
23658;SDS011;12006;42.666;23.326;2024-01-15T03:13:14;14.33;;;9.50;;
23658;SDS011;12006;42.666;23.326;2024-01-15T03:15:39;24.10;;;11.23;;
23658;SDS011;12006;42.666;23.326;2024-01-15T03:18:04;19.10;;;12.47;;
23658;SDS011;12006;42.666;23.326;2024-01-15T03:20:30;15.40;;;10.90;;
23658;SDS011;12006;42.666;23.326;2024-01-15T03:22:55;16.47;;;9.43;;
23658;SDS011;12006;42.666;23.326;2024-01-15T03:25:21;16.90;;;9.97;;
23658;SDS011;12006;42.666;23.326;2024-01-15T03:27:46;15.60;;;10.40;;
23658;SDS011;12006;42.666;23.326;2024-01-15T03:30:11;16.67;;;9.70;;
23658;SDS011;12006;42.666;23.326;2024-01-15T03:32:37;17.80;;;11.20;;
23658;SDS011;12006;42.666;23.326;2024-01-15T03:35:03;17.17;;;10.10;;
23658;SDS011;12006;42.666;23.326;2024-01-15T03:37:28;17.33;;;9.33;;
23658;SDS011;12006;42.666;23.326;2024-01-15T03:39:53;23.43;;;10.67;;
23658;SDS011;12006;42.666;23.326;2024-01-15T03:42:18;21.07;;;10.57;;
23658;SDS011;12006;42.666;23.326;2024-01-15T03:44:43;15.33;;;8.83;;
23658;SDS011;12006;42.666;23.326;2024-01-15T03:47:09;20.50;;;9.80;;
23658;SDS011;12006;42.666;23.326;2024-01-15T03:49:34;13.23;;;10.57;;
23658;SDS011;12006;42.666;23.326;2024-01-15T03:51:59;17.07;;;9.50;;
23658;SDS011;12006;42.666;23.326;2024-01-15T03:54:24;16.43;;;10.73;;
23658;SDS011;12006;42.666;23.326;2024-01-15T03:56:50;19.77;;;10.53;;
23658;SDS011;12006;42.666;23.326;2024-01-15T03:59:15;15.40;;;10.27;;
23658;SDS011;12006;42.666;23.326;2024-01-15T04:01:40;22.33;;;11.37;;
23658;SDS011;12006;42.666;23.326;2024-01-15T04:04:05;19.60;;;11.67;;
23658;SDS011;12006;42.666;23.326;2024-01-15T04:06:31;22.47;;;9.77;;
23658;SDS011;12006;42.666;23.326;2024-01-15T04:08:56;20.20;;;11.80;;
23658;SDS011;12006;42.666;23.326;2024-01-15T04:11:21;22.40;;;10.30;;
23658;SDS011;12006;42.666;23.326;2024-01-15T04:13:47;17.70;;;11.57;;
23658;SDS011;12006;42.666;23.326;2024-01-15T04:16:12;16.47;;;9.87;;
23658;SDS011;12006;42.666;23.326;2024-01-15T04:18:37;19.47;;;9.70;;
23658;SDS011;12006;42.666;23.326;2024-01-15T04:21:04;21.93;;;12.07;;
23658;SDS011;12006;42.666;23.326;2024-01-15T04:23:29;19.00;;;11.67;;
23658;SDS011;12006;42.666;23.326;2024-01-15T04:25:54;25.87;;;12.43;;
23658;SDS011;12006;42.666;23.326;2024-01-15T04:28:19;17.63;;;11.50;;
23658;SDS011;12006;42.666;23.326;2024-01-15T04:30:45;16.20;;;10.17;;
23658;SDS011;12006;42.666;23.326;2024-01-15T04:33:10;19.63;;;11.73;;
23658;SDS011;12006;42.666;23.326;2024-01-15T04:35:36;18.80;;;11.27;;
23658;SDS011;12006;42.666;23.326;2024-01-15T04:38:02;15.87;;;11.73;;
23658;SDS011;12006;42.666;23.326;2024-01-15T04:40:27;18.27;;;11.37;;
23658;SDS011;12006;42.666;23.326;2024-01-15T04:42:53;17.83;;;11.57;;
23658;SDS011;12006;42.666;23.326;2024-01-15T04:45:19;23.27;;;13.57;;
23658;SDS011;12006;42.666;23.326;2024-01-15T04:47:44;25.20;;;11.57;;
23658;SDS011;12006;42.666;23.326;2024-01-15T04:50:10;19.23;;;11.63;;
23658;SDS011;12006;42.666;23.326;2024-01-15T04:52:35;15.80;;;10.73;;
23658;SDS011;12006;42.666;23.326;2024-01-15T04:55:00;22.40;;;12.80;;
23658;SDS011;12006;42.666;23.326;2024-01-15T04:57:25;16.90;;;10.33;;
23658;SDS011;12006;42.666;23.326;2024-01-15T04:59:50;24.10;;;11.77;;
23658;SDS011;12006;42.666;23.326;2024-01-15T05:02:16;20.23;;;11.17;;
23658;SDS011;12006;42.666;23.326;2024-01-15T05:04:41;25.27;;;12.47;;
23658;SDS011;12006;42.666;23.326;2024-01-15T05:07:06;20.67;;;12.50;;
23658;SDS011;12006;42.666;23.326;2024-01-15T05:09:31;18.93;;;10.60;;
23658;SDS011;12006;42.666;23.326;2024-01-15T05:11:57;17.57;;;11.27;;
23658;SDS011;12006;42.666;23.326;2024-01-15T05:14:22;15.77;;;10.13;;
23658;SDS011;12006;42.666;23.326;2024-01-15T05:16:47;20.47;;;12.30;;
23658;SDS011;12006;42.666;23.326;2024-01-15T05:19:13;18.03;;;11.73;;
23658;SDS011;12006;42.666;23.326;2024-01-15T05:21:38;19.50;;;11.70;;
23658;SDS011;12006;42.666;23.326;2024-01-15T05:24:03;21.10;;;13.37;;
23658;SDS011;12006;42.666;23.326;2024-01-15T05:26:29;24.73;;;13.83;;
23658;SDS011;12006;42.666;23.326;2024-01-15T05:28:54;21.83;;;13.27;;
23658;SDS011;12006;42.666;23.326;2024-01-15T05:31:19;17.23;;;10.00;;
23658;SDS011;12006;42.666;23.326;2024-01-15T05:33:44;19.00;;;12.53;;
23658;SDS011;12006;42.666;23.326;2024-01-15T05:36:09;19.83;;;14.17;;
23658;SDS011;12006;42.666;23.326;2024-01-15T05:38:35;15.87;;;13.20;;
23658;SDS011;12006;42.666;23.326;2024-01-15T05:41:00;22.53;;;14.87;;
23658;SDS011;12006;42.666;23.326;2024-01-15T05:43:25;25.80;;;16.03;;
23658;SDS011;12006;42.666;23.326;2024-01-15T05:45:50;28.97;;;17.00;;
23658;SDS011;12006;42.666;23.326;2024-01-15T05:48:15;25.87;;;15.27;;
23658;SDS011;12006;42.666;23.326;2024-01-15T05:50:41;23.93;;;14.73;;
23658;SDS011;12006;42.666;23.326;2024-01-15T05:53:06;25.10;;;14.80;;
23658;SDS011;12006;42.666;23.326;2024-01-15T05:55:31;26.77;;;14.83;;
23658;SDS011;12006;42.666;23.326;2024-01-15T05:57:57;23.77;;;15.13;;
23658;SDS011;12006;42.666;23.326;2024-01-15T06:00:22;32.83;;;16.80;;
23658;SDS011;12006;42.666;23.326;2024-01-15T06:02:47;32.23;;;18.13;;
23658;SDS011;12006;42.666;23.326;2024-01-15T06:05:12;36.23;;;20.10;;
23658;SDS011;12006;42.666;23.326;2024-01-15T06:07:37;28.83;;;18.37;;
23658;SDS011;12006;42.666;23.326;2024-01-15T06:10:03;35.90;;;21.20;;
23658;SDS011;12006;42.666;23.326;2024-01-15T06:12:29;26.93;;;17.57;;
23658;SDS011;12006;42.666;23.326;2024-01-15T06:14:55;39.03;;;21.03;;
23658;SDS011;12006;42.666;23.326;2024-01-15T06:17:20;36.07;;;20.87;;
23658;SDS011;12006;42.666;23.326;2024-01-15T06:19:45;35.67;;;21.00;;
23658;SDS011;12006;42.666;23.326;2024-01-15T06:22:10;41.00;;;19.10;;
23658;SDS011;12006;42.666;23.326;2024-01-15T06:24:35;33.80;;;18.57;;
23658;SDS011;12006;42.666;23.326;2024-01-15T06:27:01;30.90;;;19.67;;
23658;SDS011;12006;42.666;23.326;2024-01-15T06:29:26;38.53;;;21.40;;
23658;SDS011;12006;42.666;23.326;2024-01-15T06:31:52;45.53;;;21.30;;
23658;SDS011;12006;42.666;23.326;2024-01-15T06:34:17;30.00;;;19.90;;
23658;SDS011;12006;42.666;23.326;2024-01-15T06:36:42;33.97;;;20.23;;
23658;SDS011;12006;42.666;23.326;2024-01-15T06:39:08;31.40;;;20.00;;
23658;SDS011;12006;42.666;23.326;2024-01-15T06:41:33;36.67;;;18.73;;
23658;SDS011;12006;42.666;23.326;2024-01-15T06:43:58;33.07;;;19.13;;
23658;SDS011;12006;42.666;23.326;2024-01-15T06:46:23;45.20;;;23.03;;
23658;SDS011;12006;42.666;23.326;2024-01-15T06:48:49;32.70;;;20.13;;
23658;SDS011;12006;42.666;23.326;2024-01-15T06:51:15;47.10;;;24.80;;
23658;SDS011;12006;42.666;23.326;2024-01-15T06:53:40;36.47;;;21.43;;
23658;SDS011;12006;42.666;23.326;2024-01-15T06:56:05;36.93;;;22.50;;
23658;SDS011;12006;42.666;23.326;2024-01-15T06:58:31;43.10;;;25.77;;
23658;SDS011;12006;42.666;23.326;2024-01-15T07:00:56;43.30;;;26.60;;
23658;SDS011;12006;42.666;23.326;2024-01-15T07:03:21;45.70;;;26.23;;
23658;SDS011;12006;42.666;23.326;2024-01-15T07:05:46;46.37;;;27.53;;
23658;SDS011;12006;42.666;23.326;2024-01-15T07:08:12;47.83;;;24.73;;
23658;SDS011;12006;42.666;23.326;2024-01-15T07:10:37;39.30;;;24.97;;
23658;SDS011;12006;42.666;23.326;2024-01-15T07:13:02;46.53;;;26.13;;
23658;SDS011;12006;42.666;23.326;2024-01-15T07:15:27;40.80;;;25.23;;
23658;SDS011;12006;42.666;23.326;2024-01-15T07:17:53;44.90;;;24.47;;
23658;SDS011;12006;42.666;23.326;2024-01-15T07:20:18;37.17;;;24.83;;
23658;SDS011;12006;42.666;23.326;2024-01-15T07:22:44;45.07;;;24.90;;
23658;SDS011;12006;42.666;23.326;2024-01-15T07:25:10;41.07;;;24.90;;
23658;SDS011;12006;42.666;23.326;2024-01-15T07:27:35;43.10;;;24.53;;
23658;SDS011;12006;42.666;23.326;2024-01-15T07:30:00;40.97;;;22.80;;
23658;SDS011;12006;42.666;23.326;2024-01-15T07:32:25;37.57;;;24.43;;
23658;SDS011;12006;42.666;23.326;2024-01-15T07:34:51;36.47;;;21.30;;
23658;SDS011;12006;42.666;23.326;2024-01-15T07:37:16;38.77;;;23.17;;
23658;SDS011;12006;42.666;23.326;2024-01-15T07:39:41;35.20;;;22.60;;
23658;SDS011;12006;42.666;23.326;2024-01-15T07:42:07;38.13;;;24.60;;
23658;SDS011;12006;42.666;23.326;2024-01-15T07:44:32;37.83;;;23.37;;
23658;SDS011;12006;42.666;23.326;2024-01-15T07:46:57;46.47;;;25.40;;
23658;SDS011;12006;42.666;23.326;2024-01-15T07:49:22;39.63;;;21.87;;
23658;SDS011;12006;42.666;23.326;2024-01-15T07:51:48;36.03;;;21.57;;
23658;SDS011;12006;42.666;23.326;2024-01-15T07:54:14;38.30;;;22.03;;
23658;SDS011;12006;42.666;23.326;2024-01-15T07:56:59;35.33;;;19.10;;
23658;SDS011;12006;42.666;23.326;2024-01-15T07:59:24;31.37;;;17.73;;
23658;SDS011;12006;42.666;23.326;2024-01-15T08:01:50;27.80;;;16.10;;
23658;SDS011;12006;42.666;23.326;2024-01-15T08:04:15;41.43;;;18.97;;
23658;SDS011;12006;42.666;23.326;2024-01-15T08:06:41;37.83;;;22.60;;
23658;SDS011;12006;42.666;23.326;2024-01-15T08:09:06;42.00;;;21.70;;
23658;SDS011;12006;42.666;23.326;2024-01-15T08:11:31;36.57;;;21.43;;
23658;SDS011;12006;42.666;23.326;2024-01-15T08:13:56;37.93;;;21.87;;
23658;SDS011;12006;42.666;23.326;2024-01-15T08:16:22;40.80;;;21.10;;
23658;SDS011;12006;42.666;23.326;2024-01-15T08:18:47;39.00;;;20.77;;
23658;SDS011;12006;42.666;23.326;2024-01-15T08:21:12;36.83;;;19.83;;
23658;SDS011;12006;42.666;23.326;2024-01-15T08:23:38;36.07;;;21.27;;
23658;SDS011;12006;42.666;23.326;2024-01-15T08:26:03;34.37;;;18.47;;
23658;SDS011;12006;42.666;23.326;2024-01-15T08:28:28;25.97;;;17.43;;
23658;SDS011;12006;42.666;23.326;2024-01-15T08:30:54;34.47;;;18.47;;
23658;SDS011;12006;42.666;23.326;2024-01-15T08:33:19;31.00;;;18.03;;
23658;SDS011;12006;42.666;23.326;2024-01-15T08:35:44;33.00;;;18.57;;
23658;SDS011;12006;42.666;23.326;2024-01-15T08:38:11;33.23;;;16.83;;
23658;SDS011;12006;42.666;23.326;2024-01-15T08:40:36;26.80;;;15.60;;
23658;SDS011;12006;42.666;23.326;2024-01-15T08:43:01;24.20;;;15.93;;
23658;SDS011;12006;42.666;23.326;2024-01-15T08:45:27;24.60;;;15.27;;
23658;SDS011;12006;42.666;23.326;2024-01-15T08:47:52;28.50;;;18.07;;
23658;SDS011;12006;42.666;23.326;2024-01-15T08:50:17;28.60;;;15.60;;
23658;SDS011;12006;42.666;23.326;2024-01-15T08:52:42;26.40;;;14.60;;
23658;SDS011;12006;42.666;23.326;2024-01-15T08:55:08;26.37;;;15.47;;
23658;SDS011;12006;42.666;23.326;2024-01-15T08:57:33;18.73;;;13.03;;
23658;SDS011;12006;42.666;23.326;2024-01-15T08:59:59;20.53;;;13.10;;
23658;SDS011;12006;42.666;23.326;2024-01-15T09:02:24;26.73;;;15.90;;
23658;SDS011;12006;42.666;23.326;2024-01-15T09:04:49;24.47;;;13.43;;
23658;SDS011;12006;42.666;23.326;2024-01-15T09:07:15;21.20;;;14.03;;
23658;SDS011;12006;42.666;23.326;2024-01-15T09:09:40;27.37;;;14.50;;
23658;SDS011;12006;42.666;23.326;2024-01-15T09:12:07;23.30;;;14.20;;
23658;SDS011;12006;42.666;23.326;2024-01-15T09:14:32;21.17;;;15.30;;
23658;SDS011;12006;42.666;23.326;2024-01-15T09:16:59;27.77;;;15.50;;
23658;SDS011;12006;42.666;23.326;2024-01-15T09:19:24;29.67;;;16.00;;
23658;SDS011;12006;42.666;23.326;2024-01-15T09:21:49;23.50;;;14.73;;
23658;SDS011;12006;42.666;23.326;2024-01-15T09:24:15;22.90;;;14.27;;
23658;SDS011;12006;42.666;23.326;2024-01-15T09:26:40;25.93;;;15.57;;
23658;SDS011;12006;42.666;23.326;2024-01-15T09:29:05;20.03;;;11.50;;
23658;SDS011;12006;42.666;23.326;2024-01-15T09:31:31;24.33;;;14.20;;
23658;SDS011;12006;42.666;23.326;2024-01-15T09:33:56;22.37;;;13.90;;
23658;SDS011;12006;42.666;23.326;2024-01-15T09:36:22;25.87;;;14.70;;
23658;SDS011;12006;42.666;23.326;2024-01-15T09:38:48;24.83;;;15.50;;
23658;SDS011;12006;42.666;23.326;2024-01-15T09:41:13;33.17;;;16.40;;
23658;SDS011;12006;42.666;23.326;2024-01-15T09:43:39;28.27;;;18.70;;
23658;SDS011;12006;42.666;23.326;2024-01-15T09:46:05;35.57;;;18.07;;
23658;SDS011;12006;42.666;23.326;2024-01-15T09:48:30;28.13;;;18.53;;
23658;SDS011;12006;42.666;23.326;2024-01-15T09:50:58;31.70;;;20.57;;
23658;SDS011;12006;42.666;23.326;2024-01-15T09:53:25;38.07;;;21.47;;
23658;SDS011;12006;42.666;23.326;2024-01-15T09:55:50;34.07;;;21.07;;
23658;SDS011;12006;42.666;23.326;2024-01-15T09:58:16;42.83;;;22.73;;
23658;SDS011;12006;42.666;23.326;2024-01-15T10:00:41;39.47;;;23.67;;
23658;SDS011;12006;42.666;23.326;2024-01-15T10:03:08;46.50;;;27.57;;
23658;SDS011;12006;42.666;23.326;2024-01-15T10:05:36;45.90;;;25.00;;
23658;SDS011;12006;42.666;23.326;2024-01-15T10:08:01;50.93;;;31.50;;
23658;SDS011;12006;42.666;23.326;2024-01-15T10:10:27;52.60;;;32.97;;
23658;SDS011;12006;42.666;23.326;2024-01-15T10:12:53;53.67;;;31.83;;
23658;SDS011;12006;42.666;23.326;2024-01-15T10:15:22;59.47;;;32.20;;
23658;SDS011;12006;42.666;23.326;2024-01-15T10:17:48;52.07;;;32.93;;
23658;SDS011;12006;42.666;23.326;2024-01-15T10:20:13;58.67;;;33.93;;
23658;SDS011;12006;42.666;23.326;2024-01-15T10:22:40;45.93;;;27.53;;
23658;SDS011;12006;42.666;23.326;2024-01-15T10:25:05;55.60;;;29.47;;
23658;SDS011;12006;42.666;23.326;2024-01-15T10:27:31;35.13;;;21.83;;
23658;SDS011;12006;42.666;23.326;2024-01-15T10:29:59;33.80;;;20.20;;
23658;SDS011;12006;42.666;23.326;2024-01-15T10:32:24;34.90;;;20.83;;
23658;SDS011;12006;42.666;23.326;2024-01-15T10:34:50;32.10;;;18.97;;
23658;SDS011;12006;42.666;23.326;2024-01-15T10:37:17;25.40;;;16.50;;
23658;SDS011;12006;42.666;23.326;2024-01-15T10:39:42;24.20;;;15.03;;
23658;SDS011;12006;42.666;23.326;2024-01-15T10:42:07;23.67;;;16.50;;
23658;SDS011;12006;42.666;23.326;2024-01-15T10:44:33;31.50;;;18.93;;
23658;SDS011;12006;42.666;23.326;2024-01-15T10:46:59;26.53;;;17.77;;
23658;SDS011;12006;42.666;23.326;2024-01-15T10:49:24;29.13;;;18.60;;
23658;SDS011;12006;42.666;23.326;2024-01-15T10:51:54;27.70;;;18.57;;
23658;SDS011;12006;42.666;23.326;2024-01-15T10:54:20;31.10;;;19.20;;
23658;SDS011;12006;42.666;23.326;2024-01-15T10:56:48;36.60;;;18.63;;
23658;SDS011;12006;42.666;23.326;2024-01-15T10:59:14;26.80;;;15.87;;
23658;SDS011;12006;42.666;23.326;2024-01-15T11:01:39;28.30;;;16.90;;
23658;SDS011;12006;42.666;23.326;2024-01-15T11:04:06;24.57;;;15.30;;
23658;SDS011;12006;42.666;23.326;2024-01-15T11:06:40;28.07;;;16.87;;
23658;SDS011;12006;42.666;23.326;2024-01-15T11:09:06;24.83;;;16.30;;
23658;SDS011;12006;42.666;23.326;2024-01-15T11:11:34;22.50;;;15.37;;
23658;SDS011;12006;42.666;23.326;2024-01-15T11:14:00;25.50;;;15.23;;
23658;SDS011;12006;42.666;23.326;2024-01-15T11:16:25;24.33;;;16.67;;
23658;SDS011;12006;42.666;23.326;2024-01-15T11:19:12;33.07;;;20.03;;
23658;SDS011;12006;42.666;23.326;2024-01-15T11:21:41;26.57;;;17.60;;
23658;SDS011;12006;42.666;23.326;2024-01-15T11:24:07;32.50;;;19.63;;
23658;SDS011;12006;42.666;23.326;2024-01-15T11:26:37;29.17;;;19.20;;
23658;SDS011;12006;42.666;23.326;2024-01-15T11:29:06;22.80;;;15.33;;
23658;SDS011;12006;42.666;23.326;2024-01-15T11:34:03;23.30;;;16.67;;
23658;SDS011;12006;42.666;23.326;2024-01-15T11:42:02;22.77;;;13.50;;
23658;SDS011;12006;42.666;23.326;2024-01-15T11:44:31;25.03;;;14.93;;
23658;SDS011;12006;42.666;23.326;2024-01-15T11:50:10;27.03;;;15.40;;
23658;SDS011;12006;42.666;23.326;2024-01-15T11:52:11;17.77;;;13.17;;
23658;SDS011;12006;42.666;23.326;2024-01-15T11:54:37;21.17;;;12.03;;
23658;SDS011;12006;42.666;23.326;2024-01-15T11:57:04;17.70;;;11.57;;
23658;SDS011;12006;42.666;23.326;2024-01-15T11:59:30;14.53;;;9.37;;
23658;SDS011;12006;42.666;23.326;2024-01-15T12:01:56;17.67;;;10.53;;
23658;SDS011;12006;42.666;23.326;2024-01-15T12:04:21;14.23;;;10.27;;
23658;SDS011;12006;42.666;23.326;2024-01-15T12:06:46;14.17;;;9.93;;
23658;SDS011;12006;42.666;23.326;2024-01-15T12:09:12;18.77;;;12.33;;
23658;SDS011;12006;42.666;23.326;2024-01-15T12:11:37;14.00;;;10.17;;
23658;SDS011;12006;42.666;23.326;2024-01-15T12:14:04;13.70;;;9.60;;
23658;SDS011;12006;42.666;23.326;2024-01-15T12:16:29;18.97;;;10.87;;
23658;SDS011;12006;42.666;23.326;2024-01-15T12:18:54;20.47;;;11.47;;
23658;SDS011;12006;42.666;23.326;2024-01-15T12:21:19;19.57;;;12.93;;
23658;SDS011;12006;42.666;23.326;2024-01-15T12:23:47;17.23;;;12.37;;
23658;SDS011;12006;42.666;23.326;2024-01-15T12:26:13;20.90;;;12.77;;
23658;SDS011;12006;42.666;23.326;2024-01-15T12:28:39;18.60;;;11.67;;
23658;SDS011;12006;42.666;23.326;2024-01-15T12:31:05;19.90;;;12.03;;
23658;SDS011;12006;42.666;23.326;2024-01-15T12:33:30;18.17;;;11.70;;
23658;SDS011;12006;42.666;23.326;2024-01-15T12:35:55;17.70;;;11.03;;
23658;SDS011;12006;42.666;23.326;2024-01-15T12:38:21;14.73;;;10.30;;
23658;SDS011;12006;42.666;23.326;2024-01-15T12:40:46;19.57;;;9.77;;
23658;SDS011;12006;42.666;23.326;2024-01-15T12:43:11;15.53;;;9.57;;
23658;SDS011;12006;42.666;23.326;2024-01-15T12:45:36;18.80;;;12.17;;
23658;SDS011;12006;42.666;23.326;2024-01-15T12:48:03;16.17;;;11.67;;
23658;SDS011;12006;42.666;23.326;2024-01-15T12:50:28;16.87;;;10.33;;
23658;SDS011;12006;42.666;23.326;2024-01-15T12:52:54;21.13;;;11.07;;
23658;SDS011;12006;42.666;23.326;2024-01-15T12:55:19;15.60;;;10.67;;
23658;SDS011;12006;42.666;23.326;2024-01-15T12:57:44;21.03;;;10.67;;
23658;SDS011;12006;42.666;23.326;2024-01-15T13:00:10;15.83;;;10.67;;
23658;SDS011;12006;42.666;23.326;2024-01-15T13:02:37;20.20;;;11.73;;
23658;SDS011;12006;42.666;23.326;2024-01-15T13:05:03;20.20;;;10.77;;
23658;SDS011;12006;42.666;23.326;2024-01-15T13:07:29;18.50;;;11.80;;
23658;SDS011;12006;42.666;23.326;2024-01-15T13:09:54;18.57;;;11.33;;
23658;SDS011;12006;42.666;23.326;2024-01-15T13:12:20;17.80;;;11.27;;
23658;SDS011;12006;42.666;23.326;2024-01-15T13:14:45;20.63;;;10.93;;
23658;SDS011;12006;42.666;23.326;2024-01-15T13:17:10;18.13;;;11.30;;
23658;SDS011;12006;42.666;23.326;2024-01-15T13:19:35;17.10;;;11.47;;
23658;SDS011;12006;42.666;23.326;2024-01-15T13:22:01;14.67;;;10.83;;
23658;SDS011;12006;42.666;23.326;2024-01-15T13:24:26;20.27;;;10.67;;
23658;SDS011;12006;42.666;23.326;2024-01-15T13:26:51;14.23;;;9.73;;
23658;SDS011;12006;42.666;23.326;2024-01-15T13:29:17;15.43;;;10.47;;
23658;SDS011;12006;42.666;23.326;2024-01-15T13:31:42;22.53;;;13.07;;
23658;SDS011;12006;42.666;23.326;2024-01-15T13:34:07;26.00;;;11.87;;
23658;SDS011;12006;42.666;23.326;2024-01-15T13:36:34;17.60;;;11.90;;
23658;SDS011;12006;42.666;23.326;2024-01-15T13:38:59;21.30;;;13.20;;
23658;SDS011;12006;42.666;23.326;2024-01-15T13:41:24;16.00;;;12.63;;
23658;SDS011;12006;42.666;23.326;2024-01-15T13:43:52;19.13;;;11.30;;
23658;SDS011;12006;42.666;23.326;2024-01-15T13:46:18;18.70;;;11.80;;
23658;SDS011;12006;42.666;23.326;2024-01-15T13:48:43;23.53;;;15.00;;
23658;SDS011;12006;42.666;23.326;2024-01-15T13:51:08;17.87;;;13.10;;
23658;SDS011;12006;42.666;23.326;2024-01-15T13:53:34;21.67;;;13.13;;
23658;SDS011;12006;42.666;23.326;2024-01-15T13:55:59;21.00;;;11.73;;
23658;SDS011;12006;42.666;23.326;2024-01-15T13:58:24;20.67;;;12.27;;
23658;SDS011;12006;42.666;23.326;2024-01-15T14:00:50;20.83;;;13.73;;
23658;SDS011;12006;42.666;23.326;2024-01-15T14:03:16;20.90;;;12.53;;
23658;SDS011;12006;42.666;23.326;2024-01-15T14:05:41;17.97;;;12.20;;
23658;SDS011;12006;42.666;23.326;2024-01-15T14:08:06;18.70;;;13.07;;
23658;SDS011;12006;42.666;23.326;2024-01-15T14:10:32;19.87;;;13.80;;